sensor_id;sensor_type;location;lat;lon;timestamp;P1;durP1;ratioP1;P2;durP2;ratioP2
63699;SDS011;49845;47.130;142.766;2023-05-07T00:01:45;5.80;;;1.90;;
63699;SDS011;49845;47.130;142.766;2023-05-07T00:04:17;9.05;;;1.77;;
63699;SDS011;49845;47.130;142.766;2023-05-07T00:06:48;2.03;;;1.58;;
63699;SDS011;49845;47.130;142.766;2023-05-07T00:09:19;4.00;;;1.77;;
63699;SDS011;49845;47.130;142.766;2023-05-07T00:11:49;5.03;;;1.80;;
63699;SDS011;49845;47.130;142.766;2023-05-07T00:14:20;3.28;;;1.90;;
63699;SDS011;49845;47.130;142.766;2023-05-07T00:16:50;4.75;;;2.15;;
63699;SDS011;49845;47.130;142.766;2023-05-07T00:19:22;5.47;;;1.85;;
63699;SDS011;49845;47.130;142.766;2023-05-07T00:21:53;3.00;;;1.83;;
63699;SDS011;49845;47.130;142.766;2023-05-07T00:24:24;8.00;;;1.92;;
63699;SDS011;49845;47.130;142.766;2023-05-07T00:26:54;17.33;;;3.13;;
63699;SDS011;49845;47.130;142.766;2023-05-07T00:29:25;4.65;;;2.13;;
63699;SDS011;49845;47.130;142.766;2023-05-07T00:31:56;4.25;;;1.60;;
63699;SDS011;49845;47.130;142.766;2023-05-07T00:34:28;9.32;;;2.72;;
63699;SDS011;49845;47.130;142.766;2023-05-07T00:36:58;3.80;;;1.90;;
63699;SDS011;49845;47.130;142.766;2023-05-07T00:39:32;5.18;;;1.83;;
63699;SDS011;49845;47.130;142.766;2023-05-07T00:42:02;4.28;;;1.30;;
63699;SDS011;49845;47.130;142.766;2023-05-07T00:44:33;6.53;;;1.92;;
63699;SDS011;49845;47.130;142.766;2023-05-07T00:47:04;1.88;;;1.30;;
63699;SDS011;49845;47.130;142.766;2023-05-07T00:49:37;4.10;;;1.83;;
63699;SDS011;49845;47.130;142.766;2023-05-07T00:52:09;5.50;;;2.33;;
63699;SDS011;49845;47.130;142.766;2023-05-07T00:54:42;16.75;;;2.80;;
63699;SDS011;49845;47.130;142.766;2023-05-07T00:57:14;17.35;;;2.40;;
63699;SDS011;49845;47.130;142.766;2023-05-07T00:59:45;5.75;;;1.88;;
63699;SDS011;49845;47.130;142.766;2023-05-07T01:02:15;4.03;;;1.75;;
63699;SDS011;49845;47.130;142.766;2023-05-07T01:04:48;10.30;;;1.80;;
63699;SDS011;49845;47.130;142.766;2023-05-07T01:07:19;14.27;;;1.95;;
63699;SDS011;49845;47.130;142.766;2023-05-07T01:09:49;4.68;;;1.60;;
63699;SDS011;49845;47.130;142.766;2023-05-07T01:12:20;10.70;;;2.13;;
63699;SDS011;49845;47.130;142.766;2023-05-07T01:14:51;8.73;;;1.95;;
63699;SDS011;49845;47.130;142.766;2023-05-07T01:17:22;7.70;;;1.73;;
63699;SDS011;49845;47.130;142.766;2023-05-07T01:19:54;5.72;;;1.73;;
63699;SDS011;49845;47.130;142.766;2023-05-07T01:22:30;2.92;;;1.60;;
63699;SDS011;49845;47.130;142.766;2023-05-07T01:25:02;3.30;;;1.40;;
63699;SDS011;49845;47.130;142.766;2023-05-07T01:27:33;3.85;;;1.45;;
63699;SDS011;49845;47.130;142.766;2023-05-07T01:30:05;5.95;;;1.58;;
63699;SDS011;49845;47.130;142.766;2023-05-07T01:32:37;4.57;;;1.70;;
63699;SDS011;49845;47.130;142.766;2023-05-07T01:35:12;2.20;;;1.52;;
63699;SDS011;49845;47.130;142.766;2023-05-07T01:37:49;2.95;;;1.63;;
63699;SDS011;49845;47.130;142.766;2023-05-07T01:40:20;5.07;;;1.67;;
63699;SDS011;49845;47.130;142.766;2023-05-07T01:42:51;3.35;;;1.52;;
63699;SDS011;49845;47.130;142.766;2023-05-07T01:45:22;2.97;;;1.83;;
63699;SDS011;49845;47.130;142.766;2023-05-07T01:47:54;5.97;;;1.67;;
63699;SDS011;49845;47.130;142.766;2023-05-07T01:50:26;11.45;;;1.92;;
63699;SDS011;49845;47.130;142.766;2023-05-07T01:52:59;12.30;;;2.35;;
63699;SDS011;49845;47.130;142.766;2023-05-07T01:55:31;2.75;;;1.55;;
63699;SDS011;49845;47.130;142.766;2023-05-07T01:58:02;2.97;;;1.42;;
63699;SDS011;49845;47.130;142.766;2023-05-07T02:00:32;3.15;;;1.40;;
63699;SDS011;49845;47.130;142.766;2023-05-07T02:03:03;3.28;;;1.80;;
63699;SDS011;49845;47.130;142.766;2023-05-07T02:05:34;5.40;;;1.75;;
63699;SDS011;49845;47.130;142.766;2023-05-07T02:08:09;4.47;;;1.88;;
63699;SDS011;49845;47.130;142.766;2023-05-07T02:10:40;2.53;;;1.65;;
63699;SDS011;49845;47.130;142.766;2023-05-07T02:13:10;3.88;;;1.60;;
63699;SDS011;49845;47.130;142.766;2023-05-07T02:15:41;3.63;;;1.58;;
63699;SDS011;49845;47.130;142.766;2023-05-07T02:18:15;3.88;;;1.52;;
63699;SDS011;49845;47.130;142.766;2023-05-07T02:20:46;8.45;;;1.80;;
63699;SDS011;49845;47.130;142.766;2023-05-07T02:23:18;3.50;;;1.60;;
63699;SDS011;49845;47.130;142.766;2023-05-07T02:25:49;4.80;;;1.70;;
63699;SDS011;49845;47.130;142.766;2023-05-07T02:28:20;5.70;;;1.83;;
63699;SDS011;49845;47.130;142.766;2023-05-07T02:30:51;4.53;;;2.00;;
63699;SDS011;49845;47.130;142.766;2023-05-07T02:33:22;3.90;;;1.70;;
63699;SDS011;49845;47.130;142.766;2023-05-07T02:35:52;2.70;;;1.52;;
63699;SDS011;49845;47.130;142.766;2023-05-07T02:38:24;6.30;;;1.75;;
63699;SDS011;49845;47.130;142.766;2023-05-07T02:40:55;8.25;;;1.77;;
63699;SDS011;49845;47.130;142.766;2023-05-07T02:43:25;4.80;;;1.50;;
63699;SDS011;49845;47.130;142.766;2023-05-07T02:46:02;5.82;;;1.65;;
63699;SDS011;49845;47.130;142.766;2023-05-07T02:48:33;4.20;;;1.85;;
63699;SDS011;49845;47.130;142.766;2023-05-07T02:51:04;3.90;;;1.42;;
63699;SDS011;49845;47.130;142.766;2023-05-07T02:53:36;5.63;;;1.70;;
63699;SDS011;49845;47.130;142.766;2023-05-07T02:56:07;8.05;;;1.75;;
63699;SDS011;49845;47.130;142.766;2023-05-07T02:58:38;11.23;;;3.70;;
63699;SDS011;49845;47.130;142.766;2023-05-07T03:01:09;11.07;;;4.80;;
63699;SDS011;49845;47.130;142.766;2023-05-07T03:03:41;3.22;;;1.45;;
63699;SDS011;49845;47.130;142.766;2023-05-07T03:06:12;8.77;;;1.83;;
63699;SDS011;49845;47.130;142.766;2023-05-07T03:08:44;2.83;;;1.40;;
63699;SDS011;49845;47.130;142.766;2023-05-07T03:11:15;6.82;;;1.50;;
63699;SDS011;49845;47.130;142.766;2023-05-07T03:13:46;4.10;;;1.75;;
63699;SDS011;49845;47.130;142.766;2023-05-07T03:16:17;9.43;;;2.00;;
63699;SDS011;49845;47.130;142.766;2023-05-07T03:18:47;2.70;;;1.40;;
63699;SDS011;49845;47.130;142.766;2023-05-07T03:21:18;3.30;;;1.40;;
63699;SDS011;49845;47.130;142.766;2023-05-07T03:23:50;5.13;;;1.50;;
63699;SDS011;49845;47.130;142.766;2023-05-07T03:26:21;2.60;;;1.30;;
63699;SDS011;49845;47.130;142.766;2023-05-07T03:28:51;4.60;;;1.43;;
63699;SDS011;49845;47.130;142.766;2023-05-07T03:31:22;22.27;;;2.70;;
63699;SDS011;49845;47.130;142.766;2023-05-07T03:33:53;7.73;;;2.00;;
63699;SDS011;49845;47.130;142.766;2023-05-07T03:36:26;5.43;;;1.50;;
63699;SDS011;49845;47.130;142.766;2023-05-07T03:38:58;7.80;;;1.70;;
63699;SDS011;49845;47.130;142.766;2023-05-07T03:41:28;4.50;;;1.40;;
63699;SDS011;49845;47.130;142.766;2023-05-07T03:43:59;17.53;;;2.53;;
63699;SDS011;49845;47.130;142.766;2023-05-07T03:46:30;2.63;;;1.70;;
63699;SDS011;49845;47.130;142.766;2023-05-07T03:49:00;5.33;;;1.60;;
63699;SDS011;49845;47.130;142.766;2023-05-07T03:51:31;7.37;;;2.10;;
63699;SDS011;49845;47.130;142.766;2023-05-07T03:54:03;4.47;;;1.50;;
63699;SDS011;49845;47.130;142.766;2023-05-07T03:56:34;10.50;;;1.67;;
63699;SDS011;49845;47.130;142.766;2023-05-07T03:59:04;3.80;;;1.70;;
63699;SDS011;49845;47.130;142.766;2023-05-07T04:01:35;13.73;;;2.60;;
63699;SDS011;49845;47.130;142.766;2023-05-07T04:04:05;7.33;;;2.03;;
63699;SDS011;49845;47.130;142.766;2023-05-07T04:06:38;21.80;;;2.93;;
63699;SDS011;49845;47.130;142.766;2023-05-07T04:09:11;8.47;;;2.00;;
63699;SDS011;49845;47.130;142.766;2023-05-07T04:11:41;24.47;;;2.20;;
63699;SDS011;49845;47.130;142.766;2023-05-07T04:14:12;10.63;;;2.67;;
63699;SDS011;49845;47.130;142.766;2023-05-07T04:16:42;19.77;;;3.23;;
63699;SDS011;49845;47.130;142.766;2023-05-07T04:19:13;13.83;;;3.77;;
63699;SDS011;49845;47.130;142.766;2023-05-07T04:21:44;10.70;;;3.20;;
63699;SDS011;49845;47.130;142.766;2023-05-07T04:24:16;20.60;;;3.73;;
63699;SDS011;49845;47.130;142.766;2023-05-07T04:26:47;32.20;;;4.47;;
63699;SDS011;49845;47.130;142.766;2023-05-07T04:29:18;19.27;;;3.43;;
63699;SDS011;49845;47.130;142.766;2023-05-07T04:31:49;9.37;;;3.03;;
63699;SDS011;49845;47.130;142.766;2023-05-07T04:34:20;18.90;;;3.00;;
63699;SDS011;49845;47.130;142.766;2023-05-07T04:36:50;14.83;;;4.47;;
63699;SDS011;49845;47.130;142.766;2023-05-07T04:39:22;40.73;;;13.80;;
63699;SDS011;49845;47.130;142.766;2023-05-07T04:41:53;25.47;;;8.83;;
63699;SDS011;49845;47.130;142.766;2023-05-07T04:44:23;20.83;;;5.47;;
63699;SDS011;49845;47.130;142.766;2023-05-07T04:46:54;22.50;;;7.30;;
63699;SDS011;49845;47.130;142.766;2023-05-07T04:49:24;30.40;;;8.87;;
63699;SDS011;49845;47.130;142.766;2023-05-07T04:51:54;30.03;;;7.37;;
63699;SDS011;49845;47.130;142.766;2023-05-07T04:54:27;26.83;;;7.23;;
63699;SDS011;49845;47.130;142.766;2023-05-07T04:56:57;48.50;;;8.73;;
63699;SDS011;49845;47.130;142.766;2023-05-07T04:59:28;31.58;;;7.88;;
63699;SDS011;49845;47.130;142.766;2023-05-07T05:01:58;47.30;;;10.90;;
63699;SDS011;49845;47.130;142.766;2023-05-07T05:04:29;17.10;;;7.70;;
63699;SDS011;49845;47.130;142.766;2023-05-07T05:07:00;28.95;;;11.32;;
63699;SDS011;49845;47.130;142.766;2023-05-07T05:09:33;31.53;;;8.37;;
63699;SDS011;49845;47.130;142.766;2023-05-07T05:12:04;22.50;;;6.03;;
63699;SDS011;49845;47.130;142.766;2023-05-07T05:14:36;16.25;;;4.20;;
63699;SDS011;49845;47.130;142.766;2023-05-07T05:17:06;30.83;;;4.43;;
63699;SDS011;49845;47.130;142.766;2023-05-07T05:19:37;13.30;;;3.90;;
63699;SDS011;49845;47.130;142.766;2023-05-07T05:22:07;82.10;;;9.60;;
63699;SDS011;49845;47.130;142.766;2023-05-07T05:24:40;16.45;;;4.97;;
63699;SDS011;49845;47.130;142.766;2023-05-07T05:27:10;21.33;;;4.47;;
63699;SDS011;49845;47.130;142.766;2023-05-07T05:29:41;27.40;;;5.47;;
63699;SDS011;49845;47.130;142.766;2023-05-07T05:32:11;17.30;;;4.03;;
63699;SDS011;49845;47.130;142.766;2023-05-07T05:34:42;18.40;;;4.53;;
63699;SDS011;49845;47.130;142.766;2023-05-07T05:37:13;12.57;;;3.90;;
63699;SDS011;49845;47.130;142.766;2023-05-07T05:39:48;15.57;;;3.53;;
63699;SDS011;49845;47.130;142.766;2023-05-07T05:42:21;20.50;;;4.57;;
63699;SDS011;49845;47.130;142.766;2023-05-07T05:44:52;29.87;;;11.83;;
63699;SDS011;49845;47.130;142.766;2023-05-07T05:47:22;36.97;;;4.73;;
63699;SDS011;49845;47.130;142.766;2023-05-07T05:49:53;35.93;;;4.73;;
63699;SDS011;49845;47.130;142.766;2023-05-07T05:52:24;28.17;;;5.33;;
63699;SDS011;49845;47.130;142.766;2023-05-07T05:54:56;11.07;;;3.70;;
63699;SDS011;49845;47.130;142.766;2023-05-07T05:57:26;15.40;;;3.80;;
63699;SDS011;49845;47.130;142.766;2023-05-07T05:59:57;11.68;;;3.67;;
63699;SDS011;49845;47.130;142.766;2023-05-07T06:02:28;15.70;;;7.27;;
63699;SDS011;49845;47.130;142.766;2023-05-07T06:04:58;17.55;;;3.47;;
63699;SDS011;49845;47.130;142.766;2023-05-07T06:07:29;16.00;;;3.72;;
63699;SDS011;49845;47.130;142.766;2023-05-07T06:10:01;21.67;;;4.30;;
63699;SDS011;49845;47.130;142.766;2023-05-07T06:12:31;13.93;;;3.97;;
63699;SDS011;49845;47.130;142.766;2023-05-07T06:15:02;24.00;;;3.70;;
63699;SDS011;49845;47.130;142.766;2023-05-07T06:17:33;11.47;;;2.90;;
63699;SDS011;49845;47.130;142.766;2023-05-07T06:20:04;12.75;;;3.45;;
63699;SDS011;49845;47.130;142.766;2023-05-07T06:22:37;8.07;;;2.83;;
63699;SDS011;49845;47.130;142.766;2023-05-07T06:25:09;21.67;;;3.43;;
63699;SDS011;49845;47.130;142.766;2023-05-07T06:27:40;12.57;;;3.30;;
63699;SDS011;49845;47.130;142.766;2023-05-07T06:30:11;9.13;;;2.22;;
63699;SDS011;49845;47.130;142.766;2023-05-07T06:32:41;20.08;;;2.95;;
63699;SDS011;49845;47.130;142.766;2023-05-07T06:35:12;21.88;;;6.20;;
63699;SDS011;49845;47.130;142.766;2023-05-07T06:37:44;14.85;;;3.25;;
63699;SDS011;49845;47.130;142.766;2023-05-07T06:40:16;7.07;;;2.38;;
63699;SDS011;49845;47.130;142.766;2023-05-07T06:42:47;9.43;;;3.03;;
63699;SDS011;49845;47.130;142.766;2023-05-07T06:45:18;15.23;;;2.85;;
63699;SDS011;49845;47.130;142.766;2023-05-07T06:47:49;32.85;;;3.80;;
63699;SDS011;49845;47.130;142.766;2023-05-07T06:50:20;9.32;;;2.92;;
63699;SDS011;49845;47.130;142.766;2023-05-07T06:52:50;12.05;;;2.70;;
63699;SDS011;49845;47.130;142.766;2023-05-07T06:55:22;33.25;;;4.55;;
63699;SDS011;49845;47.130;142.766;2023-05-07T06:57:53;16.65;;;3.95;;
63699;SDS011;49845;47.130;142.766;2023-05-07T07:00:25;10.50;;;2.75;;
63699;SDS011;49845;47.130;142.766;2023-05-07T07:02:56;28.35;;;4.57;;
63699;SDS011;49845;47.130;142.766;2023-05-07T07:05:27;13.27;;;2.92;;
63699;SDS011;49845;47.130;142.766;2023-05-07T07:08:00;27.80;;;3.67;;
63699;SDS011;49845;47.130;142.766;2023-05-07T07:10:32;8.13;;;2.45;;
63699;SDS011;49845;47.130;142.766;2023-05-07T07:13:02;16.30;;;3.53;;
63699;SDS011;49845;47.130;142.766;2023-05-07T07:15:33;15.20;;;4.05;;
63699;SDS011;49845;47.130;142.766;2023-05-07T07:18:04;10.75;;;3.03;;
63699;SDS011;49845;47.130;142.766;2023-05-07T07:20:35;12.80;;;3.08;;
63699;SDS011;49845;47.130;142.766;2023-05-07T07:23:05;9.55;;;4.18;;
63699;SDS011;49845;47.130;142.766;2023-05-07T07:25:37;8.57;;;2.83;;
63699;SDS011;49845;47.130;142.766;2023-05-07T07:28:08;10.00;;;2.78;;
63699;SDS011;49845;47.130;142.766;2023-05-07T07:30:39;6.95;;;4.43;;
63699;SDS011;49845;47.130;142.766;2023-05-07T07:33:10;19.75;;;6.25;;
63699;SDS011;49845;47.130;142.766;2023-05-07T07:35:40;9.57;;;3.65;;
63699;SDS011;49845;47.130;142.766;2023-05-07T07:38:12;39.17;;;4.55;;
63699;SDS011;49845;47.130;142.766;2023-05-07T07:40:44;9.18;;;4.22;;
63699;SDS011;49845;47.130;142.766;2023-05-07T07:43:14;7.97;;;3.70;;
63699;SDS011;49845;47.130;142.766;2023-05-07T07:45:45;20.10;;;3.35;;
63699;SDS011;49845;47.130;142.766;2023-05-07T07:48:15;32.60;;;4.50;;
63699;SDS011;49845;47.130;142.766;2023-05-07T07:50:48;17.90;;;5.95;;
63699;SDS011;49845;47.130;142.766;2023-05-07T07:53:19;19.95;;;4.80;;
63699;SDS011;49845;47.130;142.766;2023-05-07T07:55:52;9.60;;;3.72;;
63699;SDS011;49845;47.130;142.766;2023-05-07T07:58:25;9.60;;;4.32;;
63699;SDS011;49845;47.130;142.766;2023-05-07T08:00:56;13.82;;;5.25;;
63699;SDS011;49845;47.130;142.766;2023-05-07T08:03:26;42.35;;;15.98;;
63699;SDS011;49845;47.130;142.766;2023-05-07T08:05:59;19.33;;;6.18;;
63699;SDS011;49845;47.130;142.766;2023-05-07T08:08:29;10.13;;;5.28;;
63699;SDS011;49845;47.130;142.766;2023-05-07T08:11:02;11.35;;;4.05;;
63699;SDS011;49845;47.130;142.766;2023-05-07T08:13:32;17.17;;;8.13;;
63699;SDS011;49845;47.130;142.766;2023-05-07T08:16:03;47.25;;;20.27;;
63699;SDS011;49845;47.130;142.766;2023-05-07T08:18:34;36.40;;;17.77;;
63699;SDS011;49845;47.130;142.766;2023-05-07T08:21:04;26.80;;;9.20;;
63699;SDS011;49845;47.130;142.766;2023-05-07T08:23:35;15.45;;;6.68;;
63699;SDS011;49845;47.130;142.766;2023-05-07T08:26:07;15.70;;;6.32;;
63699;SDS011;49845;47.130;142.766;2023-05-07T08:28:38;17.30;;;6.18;;
63699;SDS011;49845;47.130;142.766;2023-05-07T08:31:08;17.77;;;4.80;;
63699;SDS011;49845;47.130;142.766;2023-05-07T08:33:39;11.13;;;4.20;;
63699;SDS011;49845;47.130;142.766;2023-05-07T08:36:10;7.30;;;3.47;;
63699;SDS011;49845;47.130;142.766;2023-05-07T08:38:40;10.30;;;3.92;;
63699;SDS011;49845;47.130;142.766;2023-05-07T08:41:14;25.42;;;5.35;;
63699;SDS011;49845;47.130;142.766;2023-05-07T08:43:46;8.77;;;5.15;;
63699;SDS011;49845;47.130;142.766;2023-05-07T08:46:18;10.02;;;4.30;;
63699;SDS011;49845;47.130;142.766;2023-05-07T08:48:49;11.15;;;4.28;;
63699;SDS011;49845;47.130;142.766;2023-05-07T08:51:21;11.43;;;3.95;;
63699;SDS011;49845;47.130;142.766;2023-05-07T08:53:52;8.23;;;3.90;;
63699;SDS011;49845;47.130;142.766;2023-05-07T08:56:24;12.13;;;4.25;;
63699;SDS011;49845;47.130;142.766;2023-05-07T08:58:54;24.65;;;6.25;;
63699;SDS011;49845;47.130;142.766;2023-05-07T09:01:26;14.50;;;4.70;;
63699;SDS011;49845;47.130;142.766;2023-05-07T09:03:59;9.35;;;5.45;;
63699;SDS011;49845;47.130;142.766;2023-05-07T09:06:32;14.80;;;4.28;;
63699;SDS011;49845;47.130;142.766;2023-05-07T09:09:03;13.73;;;4.63;;
63699;SDS011;49845;47.130;142.766;2023-05-07T09:11:37;20.02;;;4.32;;
63699;SDS011;49845;47.130;142.766;2023-05-07T09:14:11;10.45;;;4.82;;
63699;SDS011;49845;47.130;142.766;2023-05-07T09:16:48;16.20;;;3.45;;
63699;SDS011;49845;47.130;142.766;2023-05-07T09:19:24;18.30;;;3.78;;
63699;SDS011;49845;47.130;142.766;2023-05-07T09:21:58;9.48;;;3.50;;
63699;SDS011;49845;47.130;142.766;2023-05-07T09:24:34;12.80;;;3.83;;
63699;SDS011;49845;47.130;142.766;2023-05-07T09:27:08;9.27;;;4.63;;
63699;SDS011;49845;47.130;142.766;2023-05-07T09:29:41;13.95;;;4.38;;
63699;SDS011;49845;47.130;142.766;2023-05-07T09:32:16;47.17;;;6.30;;
63699;SDS011;49845;47.130;142.766;2023-05-07T09:34:50;30.77;;;5.30;;
63699;SDS011;49845;47.130;142.766;2023-05-07T09:37:21;24.17;;;4.97;;
63699;SDS011;49845;47.130;142.766;2023-05-07T09:39:51;17.63;;;4.55;;
63699;SDS011;49845;47.130;142.766;2023-05-07T09:42:27;19.23;;;4.70;;
63699;SDS011;49845;47.130;142.766;2023-05-07T09:45:05;55.70;;;7.93;;
63699;SDS011;49845;47.130;142.766;2023-05-07T09:47:42;25.75;;;6.45;;
63699;SDS011;49845;47.130;142.766;2023-05-07T09:50:16;20.45;;;7.40;;
63699;SDS011;49845;47.130;142.766;2023-05-07T09:52:48;19.63;;;7.85;;
63699;SDS011;49845;47.130;142.766;2023-05-07T09:55:21;35.22;;;9.98;;
63699;SDS011;49845;47.130;142.766;2023-05-07T09:57:54;19.38;;;8.15;;
63699;SDS011;49845;47.130;142.766;2023-05-07T10:00:24;26.52;;;11.60;;
63699;SDS011;49845;47.130;142.766;2023-05-07T10:02:57;21.48;;;9.85;;
63699;SDS011;49845;47.130;142.766;2023-05-07T10:05:28;23.58;;;9.55;;
63699;SDS011;49845;47.130;142.766;2023-05-07T10:08:03;16.77;;;7.25;;
63699;SDS011;49845;47.130;142.766;2023-05-07T10:10:47;16.20;;;6.10;;
63699;SDS011;49845;47.130;142.766;2023-05-07T10:13:34;15.45;;;7.07;;
63699;SDS011;49845;47.130;142.766;2023-05-07T10:16:12;17.38;;;8.85;;
63699;SDS011;49845;47.130;142.766;2023-05-07T10:18:50;18.20;;;8.52;;
63699;SDS011;49845;47.130;142.766;2023-05-07T10:21:22;19.65;;;7.97;;
63699;SDS011;49845;47.130;142.766;2023-05-07T10:23:57;19.65;;;7.50;;
63699;SDS011;49845;47.130;142.766;2023-05-07T10:26:32;23.08;;;7.10;;
63699;SDS011;49845;47.130;142.766;2023-05-07T10:29:14;17.50;;;6.20;;
63699;SDS011;49845;47.130;142.766;2023-05-07T10:31:54;11.77;;;6.43;;
63699;SDS011;49845;47.130;142.766;2023-05-07T10:34:35;15.60;;;6.65;;
63699;SDS011;49845;47.130;142.766;2023-05-07T10:37:09;14.88;;;6.40;;
63699;SDS011;49845;47.130;142.766;2023-05-07T10:39:40;11.25;;;6.35;;
63699;SDS011;49845;47.130;142.766;2023-05-07T10:42:12;13.93;;;6.18;;
63699;SDS011;49845;47.130;142.766;2023-05-07T10:44:45;13.57;;;6.50;;
63699;SDS011;49845;47.130;142.766;2023-05-07T10:47:16;12.18;;;6.03;;
63699;SDS011;49845;47.130;142.766;2023-05-07T11:02:19;16.23;;;7.35;;
63699;SDS011;49845;47.130;142.766;2023-05-07T11:07:54;17.95;;;5.78;;
63699;SDS011;49845;47.130;142.766;2023-05-07T11:10:28;12.80;;;6.05;;
63699;SDS011;49845;47.130;142.766;2023-05-07T11:16:17;15.40;;;6.60;;
63699;SDS011;49845;47.130;142.766;2023-05-07T11:18:55;18.33;;;6.22;;
63699;SDS011;49845;47.130;142.766;2023-05-07T11:21:34;18.83;;;6.32;;
63699;SDS011;49845;47.130;142.766;2023-05-07T11:24:06;16.83;;;6.38;;
63699;SDS011;49845;47.130;142.766;2023-05-07T11:26:47;22.50;;;8.38;;
63699;SDS011;49845;47.130;142.766;2023-05-07T11:29:18;57.78;;;22.92;;
63699;SDS011;49845;47.130;142.766;2023-05-07T11:31:50;39.65;;;16.88;;
63699;SDS011;49845;47.130;142.766;2023-05-07T11:34:23;34.60;;;13.50;;
63699;SDS011;49845;47.130;142.766;2023-05-07T11:36:56;20.50;;;13.90;;
63699;SDS011;49845;47.130;142.766;2023-05-07T11:39:30;39.90;;;22.10;;
63699;SDS011;49845;47.130;142.766;2023-05-07T11:42:03;21.95;;;12.95;;
63699;SDS011;49845;47.130;142.766;2023-05-07T11:44:43;27.00;;;13.73;;
63699;SDS011;49845;47.130;142.766;2023-05-07T11:47:18;54.03;;;46.08;;
63699;SDS011;49845;47.130;142.766;2023-05-07T11:49:52;49.92;;;40.58;;
63699;SDS011;49845;47.130;142.766;2023-05-07T11:52:26;38.83;;;32.88;;
63699;SDS011;49845;47.130;142.766;2023-05-07T11:54:59;23.30;;;17.42;;
63699;SDS011;49845;47.130;142.766;2023-05-07T11:57:33;16.73;;;8.20;;
63699;SDS011;49845;47.130;142.766;2023-05-07T12:00:07;12.50;;;6.47;;
63699;SDS011;49845;47.130;142.766;2023-05-07T12:02:39;18.80;;;9.10;;
63699;SDS011;49845;47.130;142.766;2023-05-07T12:05:12;16.30;;;10.85;;
63699;SDS011;49845;47.130;142.766;2023-05-07T12:07:43;15.77;;;10.00;;
63699;SDS011;49845;47.130;142.766;2023-05-07T12:10:16;14.80;;;6.60;;
63699;SDS011;49845;47.130;142.766;2023-05-07T12:12:47;15.80;;;8.80;;
63699;SDS011;49845;47.130;142.766;2023-05-07T12:15:18;19.23;;;7.13;;
63699;SDS011;49845;47.130;142.766;2023-05-07T12:17:52;15.43;;;7.07;;
63699;SDS011;49845;47.130;142.766;2023-05-07T12:20:25;15.25;;;7.90;;
63699;SDS011;49845;47.130;142.766;2023-05-07T12:22:55;16.15;;;7.13;;
63699;SDS011;49845;47.130;142.766;2023-05-07T12:25:30;17.95;;;8.20;;
63699;SDS011;49845;47.130;142.766;2023-05-07T12:28:01;14.65;;;7.72;;
63699;SDS011;49845;47.130;142.766;2023-05-07T12:30:32;16.70;;;6.97;;
63699;SDS011;49845;47.130;142.766;2023-05-07T12:33:07;16.05;;;7.78;;
63699;SDS011;49845;47.130;142.766;2023-05-07T12:35:40;15.63;;;7.50;;
63699;SDS011;49845;47.130;142.766;2023-05-07T12:38:12;12.52;;;6.35;;
63699;SDS011;49845;47.130;142.766;2023-05-07T12:40:45;16.20;;;5.85;;
63699;SDS011;49845;47.130;142.766;2023-05-07T12:43:18;337.90;;;136.60;;
63699;SDS011;49845;47.130;142.766;2023-05-07T12:45:50;202.77;;;95.82;;
63699;SDS011;49845;47.130;142.766;2023-05-07T12:48:23;216.82;;;112.35;;
63699;SDS011;49845;47.130;142.766;2023-05-07T12:51:00;32.55;;;17.95;;
63699;SDS011;49845;47.130;142.766;2023-05-07T12:53:33;15.95;;;7.68;;
63699;SDS011;49845;47.130;142.766;2023-05-07T12:56:11;17.27;;;6.68;;
63699;SDS011;49845;47.130;142.766;2023-05-07T12:58:48;12.18;;;6.30;;
63699;SDS011;49845;47.130;142.766;2023-05-07T13:01:18;11.82;;;6.00;;
63699;SDS011;49845;47.130;142.766;2023-05-07T13:03:51;12.48;;;5.85;;
63699;SDS011;49845;47.130;142.766;2023-05-07T13:06:27;13.30;;;6.00;;
63699;SDS011;49845;47.130;142.766;2023-05-07T13:08:57;11.40;;;6.50;;
63699;SDS011;49845;47.130;142.766;2023-05-07T13:11:33;12.32;;;7.30;;
63699;SDS011;49845;47.130;142.766;2023-05-07T13:14:06;13.80;;;6.50;;
63699;SDS011;49845;47.130;142.766;2023-05-07T13:16:37;11.95;;;6.15;;
63699;SDS011;49845;47.130;142.766;2023-05-07T13:19:07;58.20;;;28.73;;
63699;SDS011;49845;47.130;142.766;2023-05-07T13:21:43;49.25;;;24.73;;
63699;SDS011;49845;47.130;142.766;2023-05-07T13:24:13;37.42;;;21.05;;
63699;SDS011;49845;47.130;142.766;2023-05-07T13:26:48;82.03;;;46.53;;
63699;SDS011;49845;47.130;142.766;2023-05-07T13:29:20;39.28;;;23.50;;
63699;SDS011;49845;47.130;142.766;2023-05-07T13:31:56;16.48;;;6.85;;
63699;SDS011;49845;47.130;142.766;2023-05-07T13:34:28;13.02;;;6.32;;
63699;SDS011;49845;47.130;142.766;2023-05-07T13:37:03;12.82;;;6.60;;
63699;SDS011;49845;47.130;142.766;2023-05-07T13:39:37;12.85;;;6.57;;
63699;SDS011;49845;47.130;142.766;2023-05-07T13:42:08;13.75;;;7.18;;
63699;SDS011;49845;47.130;142.766;2023-05-07T13:44:39;13.98;;;6.93;;
63699;SDS011;49845;47.130;142.766;2023-05-07T13:47:21;14.15;;;6.70;;
63699;SDS011;49845;47.130;142.766;2023-05-07T13:49:54;11.73;;;7.10;;
63699;SDS011;49845;47.130;142.766;2023-05-07T13:52:26;11.13;;;6.43;;
63699;SDS011;49845;47.130;142.766;2023-05-07T13:54:58;13.23;;;6.80;;
63699;SDS011;49845;47.130;142.766;2023-05-07T13:57:28;17.45;;;9.05;;
63699;SDS011;49845;47.130;142.766;2023-05-07T13:59:59;12.23;;;7.20;;
63699;SDS011;49845;47.130;142.766;2023-05-07T14:02:29;17.40;;;8.18;;
63699;SDS011;49845;47.130;142.766;2023-05-07T14:05:00;17.23;;;7.68;;
63699;SDS011;49845;47.130;142.766;2023-05-07T14:07:32;19.02;;;7.78;;
63699;SDS011;49845;47.130;142.766;2023-05-07T14:10:04;13.20;;;7.07;;
63699;SDS011;49845;47.130;142.766;2023-05-07T14:12:36;16.45;;;8.98;;
63699;SDS011;49845;47.130;142.766;2023-05-07T14:15:08;20.55;;;8.43;;
63699;SDS011;49845;47.130;142.766;2023-05-07T14:17:42;20.25;;;7.63;;
63699;SDS011;49845;47.130;142.766;2023-05-07T14:20:13;15.20;;;7.72;;
63699;SDS011;49845;47.130;142.766;2023-05-07T14:22:45;12.32;;;7.38;;
63699;SDS011;49845;47.130;142.766;2023-05-07T14:25:16;15.10;;;7.70;;
63699;SDS011;49845;47.130;142.766;2023-05-07T14:27:47;10.95;;;6.57;;
63699;SDS011;49845;47.130;142.766;2023-05-07T14:30:17;12.50;;;7.10;;
63699;SDS011;49845;47.130;142.766;2023-05-07T14:32:50;15.13;;;7.25;;
63699;SDS011;49845;47.130;142.766;2023-05-07T14:35:21;14.23;;;7.18;;
63699;SDS011;49845;47.130;142.766;2023-05-07T14:37:53;11.98;;;6.78;;
63699;SDS011;49845;47.130;142.766;2023-05-07T14:40:24;13.45;;;6.82;;
63699;SDS011;49845;47.130;142.766;2023-05-07T14:42:54;13.90;;;6.97;;
63699;SDS011;49845;47.130;142.766;2023-05-07T14:45:25;11.65;;;6.70;;
63699;SDS011;49845;47.130;142.766;2023-05-07T14:47:56;12.43;;;6.05;;
63699;SDS011;49845;47.130;142.766;2023-05-07T14:50:32;14.30;;;6.90;;
63699;SDS011;49845;47.130;142.766;2023-05-07T14:53:05;11.00;;;6.10;;
63699;SDS011;49845;47.130;142.766;2023-05-07T14:55:36;14.43;;;5.55;;
63699;SDS011;49845;47.130;142.766;2023-05-07T14:58:07;8.20;;;5.50;;